Terminal Aerodrome Forecast
Issued by NWS

Home | Current Version | Previous Version | Text Only | Print | Product List | Glossary On
Versions: 1 2 3 4 5 6 7 8 9 10 11 12 13 14 15 16 17 18
000
FTUS45 KREV 241740
TAFTRK
TAF
KTRK 241740Z 2418/2518 VRB03KT P6SM FEW050 BKN180
     FM242000 23006KT P6SM SCT050 OVC080
     FM250200 VRB03KT P6SM BKN040 OVC060
     FM251200 VRB03KT 4SM BR VCSH BKN030 OVC050=

USA.gov is the U.S. government's official web portal to all federal, state and local government web resources and services.